Time;durP1;ratioP1;P1;durP2;ratioP2;P2;SDS_P1;SDS_P2;PMS_P1;PMS_P2;Temp;Humidity;BMP_temperature;BMP_pressure;BME280_temperature;BME280_humidity;BME280_pressure;Samples;Min_cycle;Max_cycle;Signal;HPM_P1;HPM_P2
2022/11/24 00:01:29;;;;;;;11.60;2.90;;;8.70;99.90;;;;;;4980411;28;20596;-57
2022/11/24 00:04:02;;;;;;;19.90;3.70;;;8.70;99.90;;;;;;4979783;28;20816;-57
2022/11/24 00:06:33;;;;;;;15.20;3.60;;;8.70;99.90;;;;;;4987680;28;20253;-57
2022/11/24 00:09:03;;;;;;;16.77;3.27;;;8.70;99.90;;;;;;4983007;28;20238;-56
2022/11/24 00:11:34;;;;;;;16.83;3.43;;;8.80;99.90;;;;;;5022128;28;20199;-56
2022/11/24 00:14:04;;;;;;;16.33;3.33;;;8.80;99.90;;;;;;4982193;28;20213;-56
2022/11/24 00:16:34;;;;;;;19.50;3.70;;;8.80;99.90;;;;;;5005861;28;20196;-57
2022/11/24 00:19:06;;;;;;;19.07;3.67;;;8.90;99.90;;;;;;4982067;28;20694;-55
2022/11/24 00:21:36;;;;;;;22.00;4.00;;;8.90;99.90;;;;;;4980645;28;20641;-56
2022/11/24 00:24:05;;;;;;;19.30;3.93;;;8.80;99.90;;;;;;4997913;28;20195;-57
2022/11/24 00:26:36;;;;;;;14.13;3.50;;;8.80;99.90;;;;;;4984778;28;20268;-55
2022/11/24 00:29:07;;;;;;;26.37;4.80;;;8.90;99.90;;;;;;5017867;28;20200;-56
2022/11/24 00:31:37;;;;;;;26.17;3.83;;;8.90;99.90;;;;;;4991310;28;20212;-55
2022/11/24 00:34:10;;;;;;;17.87;3.93;;;8.90;99.90;;;;;;4976361;28;20533;-57
2022/11/24 00:36:39;;;;;;;19.03;4.00;;;8.80;99.90;;;;;;4976452;28;21152;-57
2022/11/24 00:39:11;;;;;;;19.50;3.93;;;8.80;99.90;;;;;;4986864;28;20222;-57
2022/11/24 00:41:40;;;;;;;26.40;4.00;;;8.80;99.90;;;;;;4978545;28;20775;-56
2022/11/24 00:44:08;;;;;;;14.77;3.40;;;8.90;99.90;;;;;;4983746;28;20195;-57
2022/11/24 00:46:37;;;;;;;19.10;3.73;;;8.80;99.90;;;;;;4977895;28;20191;-57
2022/11/24 00:49:07;;;;;;;25.93;4.33;;;8.80;99.90;;;;;;4976818;28;20203;-55
2022/11/24 00:51:35;;;;;;;20.93;4.23;;;8.90;99.90;;;;;;4978649;28;21945;-57
2022/11/24 00:54:05;;;;;;;22.70;4.27;;;8.90;99.90;;;;;;5010155;28;20205;-57
2022/11/24 00:56:33;;;;;;;17.90;3.90;;;9.00;99.90;;;;;;4974145;28;20199;-56
2022/11/24 00:59:02;;;;;;;31.83;4.10;;;9.00;99.90;;;;;;4981249;28;20202;-57
2022/11/24 01:01:30;;;;;;;16.93;3.40;;;9.00;99.90;;;;;;4980096;28;20290;-54
2022/11/24 01:04:01;;;;;;;23.47;4.40;;;9.00;99.90;;;;;;4982726;28;20272;-56
2022/11/24 01:06:32;;;;;;;20.03;4.60;;;8.90;99.90;;;;;;4985964;28;20228;-57
2022/11/24 01:09:01;;;;;;;29.17;4.40;;;8.90;99.90;;;;;;4983910;28;20290;-57
2022/11/24 01:11:59;;;;;;;16.30;4.10;;;8.90;99.90;;;;;;4973926;28;20539;-56
2022/11/24 01:14:22;;;;;;;21.30;4.40;;;8.90;99.90;;;;;;4979708;28;20211;-57
2022/11/24 01:16:50;;;;;;;18.60;4.10;;;8.90;99.90;;;;;;4978694;28;20197;-56
2022/11/24 01:19:18;;;;;;;15.43;3.97;;;8.90;99.90;;;;;;4981541;28;20266;-57
2022/11/24 01:21:48;;;;;;;18.67;4.53;;;8.90;99.90;;;;;;4986993;28;20194;-56
2022/11/24 01:24:17;;;;;;;20.37;3.93;;;8.90;99.90;;;;;;4983012;28;20220;-57
2022/11/24 01:26:45;;;;;;;20.93;4.37;;;9.00;99.90;;;;;;4976550;28;20278;-57
2022/11/24 01:29:14;;;;;;;17.30;3.70;;;9.00;99.90;;;;;;4990143;28;20225;-57
2022/11/24 01:31:42;;;;;;;16.37;3.90;;;9.00;99.90;;;;;;4981199;28;20206;-57
2022/11/24 01:34:11;;;;;;;27.13;4.87;;;9.00;99.90;;;;;;4998155;28;20222;-56
2022/11/24 01:36:40;;;;;;;24.17;4.23;;;9.00;99.90;;;;;;4979958;28;20666;-57
2022/11/24 01:39:10;;;;;;;19.77;4.00;;;9.10;99.90;;;;;;4989004;28;20646;-56
2022/11/24 01:41:38;;;;;;;19.53;3.83;;;9.10;99.90;;;;;;4987055;28;20196;-57
2022/11/24 01:44:24;;;;;;;20.00;4.20;;;9.10;99.90;;;;;;4989204;28;20230;-57
2022/11/24 01:46:56;;;;;;;15.47;3.83;;;9.00;99.90;;;;;;4986025;28;20206;-57
2022/11/24 01:49:29;;;;;;;28.20;4.63;;;9.00;99.90;;;;;;4986270;28;20252;-57
2022/11/24 01:52:01;;;;;;;32.73;4.63;;;9.10;99.90;;;;;;4982237;28;20643;-56
2022/11/24 01:54:33;;;;;;;36.00;4.60;;;9.10;99.90;;;;;;4985867;28;20202;-57
2022/11/24 01:57:07;;;;;;;22.57;4.23;;;9.20;99.90;;;;;;4978441;28;20204;-57
2022/11/24 01:59:37;;;;;;;18.07;4.00;;;9.20;99.90;;;;;;4978917;28;20190;-57
2022/11/24 02:02:06;;;;;;;22.17;4.77;;;9.20;99.90;;;;;;4976058;28;20204;-57
2022/11/24 02:04:35;;;;;;;28.37;4.10;;;9.30;99.90;;;;;;4987415;28;20811;-56
2022/11/24 02:07:07;;;;;;;22.70;5.40;;;9.30;99.90;;;;;;4983977;28;20215;-57
2022/11/24 02:09:44;;;;;;;24.20;4.03;;;9.30;99.90;;;;;;4979212;28;20203;-57
2022/11/24 02:12:13;;;;;;;25.97;4.30;;;9.40;99.90;;;;;;4975102;28;20242;-56
2022/11/24 02:14:43;;;;;;;29.00;4.10;;;9.40;99.90;;;;;;4984537;28;20191;-57
2022/11/24 02:17:11;;;;;;;17.00;3.23;;;9.40;99.90;;;;;;5021369;27;20194;-56
2022/11/24 02:19:51;;;;;;;13.93;3.27;;;9.40;99.90;;;;;;4977208;28;20234;-57
2022/11/24 02:22:27;;;;;;;11.63;2.70;;;9.40;99.90;;;;;;4982944;28;20221;-57
2022/11/24 02:25:01;;;;;;;10.47;2.73;;;9.20;99.90;;;;;;4988244;28;20245;-56
2022/11/24 02:27:31;;;;;;;11.27;2.97;;;9.00;99.90;;;;;;4976934;28;20213;-56
2022/11/24 02:30:00;;;;;;;4.93;2.37;;;8.80;99.90;;;;;;4988622;28;20654;-55
2022/11/24 02:32:31;;;;;;;5.70;1.63;;;8.60;99.90;;;;;;4989793;28;20196;-57
2022/11/24 02:35:01;;;;;;;7.17;1.97;;;8.50;99.90;;;;;;4979346;28;20649;-57
2022/11/24 02:37:30;;;;;;;8.00;1.77;;;8.30;99.90;;;;;;4985031;28;20193;-57
2022/11/24 02:39:58;;;;;;;6.07;2.43;;;8.20;99.90;;;;;;4975281;28;20209;-57
2022/11/24 02:42:28;;;;;;;5.47;2.20;;;8.10;99.90;;;;;;4982892;28;20431;-57
2022/11/24 02:45:00;;;;;;;8.67;2.10;;;8.00;99.90;;;;;;4976089;28;20215;-57
2022/11/24 02:47:29;;;;;;;10.27;2.30;;;7.90;99.90;;;;;;4981246;28;20665;-57
2022/11/24 02:49:57;;;;;;;7.27;2.00;;;7.80;99.90;;;;;;4994240;28;20202;-57
2022/11/24 02:52:26;;;;;;;3.13;1.77;;;7.80;99.90;;;;;;4974719;28;20180;-57
2022/11/24 02:54:54;;;;;;;3.87;1.77;;;7.70;99.90;;;;;;4974397;28;20203;-56
2022/11/24 02:57:23;;;;;;;5.33;2.10;;;7.70;99.90;;;;;;4980290;28;20575;-56
2022/11/24 02:59:51;;;;;;;3.00;1.73;;;7.70;99.90;;;;;;4972620;28;20202;-56
2022/11/24 03:02:22;;;;;;;2.13;1.73;;;7.70;99.90;;;;;;5004164;28;20222;-57
2022/11/24 03:04:50;;;;;;;4.63;1.90;;;7.70;99.90;;;;;;5003955;28;20543;-56
2022/11/24 03:07:19;;;;;;;6.90;1.70;;;7.70;99.90;;;;;;4979099;28;20200;-57
2022/11/24 03:09:48;;;;;;;5.57;1.57;;;7.70;99.90;;;;;;4981011;28;20215;-57
2022/11/24 03:12:16;;;;;;;6.27;1.80;;;7.70;99.90;;;;;;4992792;28;20202;-56
2022/11/24 03:14:44;;;;;;;10.57;2.47;;;7.70;99.90;;;;;;5028801;28;20191;-57
2022/11/24 03:17:12;;;;;;;4.33;1.60;;;7.70;99.90;;;;;;4975174;28;20199;-56
2022/11/24 03:19:42;;;;;;;4.97;2.13;;;7.70;99.90;;;;;;4971969;28;20228;-57
2022/11/24 03:22:13;;;;;;;7.47;1.90;;;7.70;99.90;;;;;;4974712;28;20550;-54
2022/11/24 03:24:42;;;;;;;4.33;1.83;;;7.80;99.90;;;;;;4987634;28;20203;-54
2022/11/24 03:27:10;;;;;;;8.50;2.23;;;7.80;99.90;;;;;;4978075;28;20641;-56
2022/11/24 03:29:39;;;;;;;5.30;1.90;;;7.70;99.90;;;;;;4971442;28;20194;-57
2022/11/24 03:32:07;;;;;;;5.83;1.80;;;7.80;99.90;;;;;;4982717;28;20206;-57
2022/11/24 03:34:35;;;;;;;6.13;2.00;;;7.80;99.90;;;;;;4991241;28;20201;-56
2022/11/24 03:37:05;;;;;;;3.93;1.70;;;7.80;99.90;;;;;;4988663;28;20550;-56
2022/11/24 03:39:34;;;;;;;7.07;2.10;;;7.70;99.90;;;;;;4975971;28;20662;-54
2022/11/24 03:42:02;;;;;;;4.10;1.80;;;7.70;99.90;;;;;;4978244;28;20222;-57
2022/11/24 03:44:30;;;;;;;6.00;2.03;;;7.70;99.90;;;;;;4976545;28;20207;-57
2022/11/24 03:46:59;;;;;;;7.70;2.10;;;7.70;99.90;;;;;;4984533;28;20199;-56
2022/11/24 03:49:28;;;;;;;2.80;1.77;;;7.70;99.90;;;;;;5002428;28;20198;-56
2022/11/24 03:51:56;;;;;;;5.73;2.00;;;7.70;99.90;;;;;;4978039;28;20203;-57
2022/11/24 03:54:26;;;;;;;2.87;1.50;;;7.70;99.90;;;;;;4987980;28;20202;-56
2022/11/24 03:56:55;;;;;;;6.10;1.87;;;7.80;99.90;;;;;;4970401;28;20670;-56
2022/11/24 03:59:23;;;;;;;4.67;1.60;;;7.80;99.90;;;;;;4978108;28;20201;-57
2022/11/24 04:01:51;;;;;;;3.83;1.70;;;7.90;99.90;;;;;;4994824;28;20206;-57
2022/11/24 04:04:20;;;;;;;4.20;1.53;;;8.00;99.90;;;;;;4980175;28;20217;-57
2022/11/24 04:06:48;;;;;;;5.83;1.80;;;8.10;99.90;;;;;;4982783;28;20535;-57
2022/11/24 04:09:16;;;;;;;3.30;1.67;;;8.10;99.90;;;;;;4982263;28;20633;-56
2022/11/24 04:15:13;;;;;;;2.20;1.70;;;8.20;99.90;;;;;;4975622;28;20610;-57
2022/11/24 04:18:22;;;;;;;5.97;1.40;;;8.20;99.90;;;;;;4986085;28;20292;-56
2022/11/24 04:21:30;;;;;;;7.83;1.93;;;8.10;99.90;;;;;;4975149;28;20248;-56
2022/11/24 04:24:39;;;;;;;1.70;1.40;;;8.10;99.90;;;;;;4974101;28;20254;-57
2022/11/24 04:27:08;;;;;;;5.10;1.70;;;8.00;99.90;;;;;;5013793;28;20221;-57
2022/11/24 04:29:37;;;;;;;2.67;1.67;;;8.00;99.90;;;;;;4980243;28;20203;-56
2022/11/24 04:32:05;;;;;;;2.70;1.40;;;8.00;99.90;;;;;;4979349;28;20195;-56
2022/11/24 04:34:37;;;;;;;3.93;1.60;;;8.00;99.90;;;;;;4977786;28;20716;-57
2022/11/24 04:37:05;;;;;;;2.30;1.40;;;7.90;99.90;;;;;;4977679;28;20206;-56
2022/11/24 04:39:34;;;;;;;5.87;1.57;;;8.00;99.90;;;;;;4981625;28;20191;-56
2022/11/24 04:42:03;;;;;;;2.60;1.50;;;8.00;99.90;;;;;;4977412;28;20199;-56
2022/11/24 04:44:32;;;;;;;3.17;1.53;;;7.90;99.90;;;;;;4986222;28;20208;-55
2022/11/24 04:47:01;;;;;;;8.10;1.40;;;7.90;99.90;;;;;;4984110;28;20723;-56
2022/11/24 04:49:30;;;;;;;6.60;2.17;;;7.90;99.90;;;;;;4984714;28;20195;-56
2022/11/24 04:51:59;;;;;;;5.53;1.93;;;7.90;99.90;;;;;;5004480;28;20215;-57
2022/11/24 04:54:27;;;;;;;4.23;1.80;;;7.80;99.90;;;;;;4983421;28;20191;-55
2022/11/24 04:56:56;;;;;;;6.13;1.60;;;7.80;99.90;;;;;;4976197;28;20241;-56
2022/11/24 04:59:24;;;;;;;4.57;1.90;;;7.80;99.90;;;;;;5008857;28;20221;-57
2022/11/24 05:01:53;;;;;;;3.10;1.40;;;7.80;99.90;;;;;;4987286;28;20546;-54
2022/11/24 05:04:22;;;;;;;6.67;1.80;;;7.80;99.90;;;;;;4988106;28;20264;-56
2022/11/24 05:06:51;;;;;;;3.17;1.63;;;7.80;99.90;;;;;;4985323;28;20195;-56
2022/11/24 05:09:19;;;;;;;5.73;1.80;;;7.80;99.90;;;;;;4980302;28;20196;-56
2022/11/24 05:11:47;;;;;;;6.23;1.90;;;7.80;99.90;;;;;;4982749;28;20199;-56
2022/11/24 05:14:16;;;;;;;12.23;2.77;;;7.80;99.90;;;;;;4989064;28;20673;-57
2022/11/24 05:16:44;;;;;;;6.27;1.93;;;7.80;99.90;;;;;;5005766;28;20282;-56
2022/11/24 05:19:14;;;;;;;7.90;2.00;;;7.80;99.90;;;;;;5002356;28;20251;-57
2022/11/24 05:21:42;;;;;;;7.37;2.10;;;7.80;99.90;;;;;;4982122;28;20523;-57
2022/11/24 05:24:10;;;;;;;7.87;2.10;;;7.70;99.90;;;;;;4981818;28;20200;-57
2022/11/24 05:26:39;;;;;;;7.27;2.40;;;7.70;99.90;;;;;;4976466;28;20195;-56
2022/11/24 05:29:07;;;;;;;9.37;2.50;;;7.70;99.90;;;;;;4977989;28;20204;-56
2022/11/24 05:31:35;;;;;;;6.73;2.40;;;7.70;99.90;;;;;;4977695;28;20195;-54
2022/11/24 05:34:05;;;;;;;5.00;2.20;;;7.60;99.90;;;;;;4993125;28;20199;-56
2022/11/24 05:36:52;;;;;;;12.50;2.57;;;7.60;99.90;;;;;;4984183;28;20552;-57
2022/11/24 05:39:21;;;;;;;13.00;2.97;;;7.50;99.90;;;;;;5006019;28;20613;-55
2022/11/24 05:41:49;;;;;;;6.40;2.53;;;7.50;99.90;;;;;;4975920;28;20532;-57
2022/11/24 05:44:18;;;;;;;9.50;2.70;;;7.50;99.90;;;;;;4979600;28;20605;-55
2022/11/24 05:46:46;;;;;;;9.37;2.77;;;7.40;99.90;;;;;;4983078;28;20191;-56
2022/11/24 05:49:14;;;;;;;5.63;2.40;;;7.40;99.90;;;;;;4982859;28;20654;-57
2022/11/24 05:51:44;;;;;;;11.47;2.80;;;7.40;99.90;;;;;;4982517;28;20202;-57
2022/11/24 05:54:12;;;;;;;5.60;2.63;;;7.30;99.90;;;;;;4984091;28;20198;-57
2022/11/24 05:56:41;;;;;;;6.57;2.83;;;7.20;99.90;;;;;;4981934;28;20207;-57
2022/11/24 05:59:09;;;;;;;8.37;2.70;;;7.20;99.90;;;;;;4977348;28;20205;-56
2022/11/24 06:01:37;;;;;;;10.27;2.67;;;7.10;99.90;;;;;;4980933;28;20776;-56
2022/11/24 06:04:06;;;;;;;10.93;2.63;;;7.10;99.90;;;;;;4991991;28;20206;-56
2022/11/24 06:06:34;;;;;;;13.37;2.97;;;7.10;99.90;;;;;;5017574;28;20531;-56
2022/11/24 06:09:04;;;;;;;12.97;2.73;;;7.10;99.90;;;;;;5011895;28;20192;-56
2022/11/24 06:11:33;;;;;;;14.87;3.23;;;7.00;99.90;;;;;;4979578;28;20537;-57
2022/11/24 06:14:01;;;;;;;10.60;3.10;;;7.10;99.90;;;;;;4996716;28;20683;-56
2022/11/24 06:16:36;;;;;;;13.50;3.20;;;7.10;99.90;;;;;;4981232;28;20270;-56
2022/11/24 06:19:05;;;;;;;5.87;2.63;;;7.10;99.90;;;;;;4986312;28;20696;-55
2022/11/24 06:21:33;;;;;;;12.30;2.70;;;7.10;99.90;;;;;;4999137;28;20222;-57
2022/11/24 06:24:02;;;;;;;9.17;2.80;;;7.00;99.90;;;;;;4978555;28;20223;-56
2022/11/24 06:26:32;;;;;;;10.63;2.67;;;7.00;99.90;;;;;;4980140;28;20218;-57
2022/11/24 06:29:00;;;;;;;10.27;3.33;;;6.90;99.90;;;;;;4981061;28;20203;-55
2022/11/24 06:31:28;;;;;;;13.63;3.30;;;6.80;99.90;;;;;;4980920;28;20200;-56
2022/11/24 06:33:57;;;;;;;16.00;2.83;;;6.70;99.90;;;;;;4988440;28;20199;-56
2022/11/24 06:36:25;;;;;;;10.10;2.70;;;6.80;99.90;;;;;;4979052;28;20199;-56
2022/11/24 06:38:54;;;;;;;10.30;3.10;;;6.90;99.90;;;;;;5005687;28;20241;-56
2022/11/24 06:41:24;;;;;;;10.57;3.10;;;6.90;99.90;;;;;;4978906;28;20535;-57
2022/11/24 06:43:54;;;;;;;14.63;3.40;;;6.90;99.90;;;;;;4992662;28;20219;-56
2022/11/24 06:46:23;;;;;;;11.60;3.03;;;6.90;99.90;;;;;;4976742;28;20653;-56
2022/11/24 06:48:52;;;;;;;17.33;3.87;;;6.80;99.90;;;;;;4983094;28;20211;-55
2022/11/24 06:51:20;;;;;;;13.60;3.47;;;6.80;99.90;;;;;;4986084;28;20202;-56
2022/11/24 06:53:48;;;;;;;18.37;3.30;;;6.80;99.90;;;;;;4984290;28;20687;-57
2022/11/24 06:56:20;;;;;;;11.30;3.43;;;6.80;99.90;;;;;;4977933;28;20197;-57
2022/11/24 06:58:49;;;;;;;18.60;4.03;;;6.80;99.90;;;;;;5015365;28;20198;-56
2022/11/24 07:01:21;;;;;;;22.40;3.67;;;6.80;99.90;;;;;;4984561;28;20276;-56
2022/11/24 07:03:50;;;;;;;13.83;3.57;;;6.80;99.90;;;;;;5003285;28;20198;-55
2022/11/24 07:06:20;;;;;;;22.40;4.80;;;6.80;99.90;;;;;;4984210;28;20554;-56
2022/11/24 07:08:49;;;;;;;21.80;5.20;;;6.80;99.90;;;;;;4982282;28;20219;-55
2022/11/24 07:11:20;;;;;;;22.10;4.10;;;6.80;99.90;;;;;;4979454;28;20234;-56
2022/11/24 07:13:50;;;;;;;19.37;4.67;;;6.80;99.90;;;;;;4982000;28;20192;-55
2022/11/24 07:16:28;;;;;;;23.97;4.30;;;6.80;99.90;;;;;;4984746;28;20222;-57
2022/11/24 07:19:00;;;;;;;17.60;4.37;;;6.80;99.90;;;;;;4989040;28;20592;-57
2022/11/24 07:21:29;;;;;;;17.07;4.63;;;6.80;99.90;;;;;;4982800;28;20215;-56
2022/11/24 07:23:59;;;;;;;13.80;3.97;;;6.80;99.90;;;;;;4982565;28;20324;-56
2022/11/24 07:26:27;;;;;;;23.67;5.00;;;6.80;99.90;;;;;;4976931;28;20538;-57
2022/11/24 07:28:56;;;;;;;23.70;5.33;;;6.80;99.90;;;;;;4990614;28;20190;-57
2022/11/24 07:31:24;;;;;;;18.20;4.27;;;6.80;99.90;;;;;;4988676;28;20526;-56
2022/11/24 07:33:55;;;;;;;22.60;4.83;;;6.80;99.90;;;;;;4976380;28;20199;-57
2022/11/24 07:36:24;;;;;;;23.33;4.80;;;6.80;99.90;;;;;;4981508;28;20200;-56
2022/11/24 07:38:52;;;;;;;23.90;4.20;;;6.80;99.90;;;;;;4985691;28;20682;-56
2022/11/24 07:41:21;;;;;;;26.33;5.03;;;6.70;99.90;;;;;;4979163;28;20203;-56
2022/11/24 07:43:50;;;;;;;21.57;5.10;;;6.80;99.90;;;;;;4978105;28;20202;-57
2022/11/24 07:46:20;;;;;;;19.43;4.20;;;6.80;99.90;;;;;;4976201;28;20222;-57
2022/11/24 07:48:48;;;;;;;17.87;3.97;;;6.80;99.90;;;;;;4978669;28;20604;-56
2022/11/24 07:51:18;;;;;;;17.13;3.90;;;6.80;99.90;;;;;;4981127;28;20572;-56
2022/11/24 07:53:46;;;;;;;15.70;4.10;;;6.90;99.90;;;;;;4980892;28;20599;-57
2022/11/24 07:56:14;;;;;;;17.50;3.43;;;6.90;99.90;;;;;;4983481;28;20188;-56
2022/11/24 07:58:43;;;;;;;12.90;3.80;;;7.00;99.90;;;;;;4973652;28;20206;-57
2022/11/24 08:01:19;;;;;;;13.53;3.57;;;7.00;99.90;;;;;;4996803;28;20218;-55
2022/11/24 08:03:48;;;;;;;9.43;3.00;;;7.00;99.90;;;;;;4982469;28;20526;-57
2022/11/24 08:06:18;;;;;;;10.60;3.10;;;7.10;99.90;;;;;;4976791;28;20219;-56
2022/11/24 08:08:54;;;;;;;11.97;2.70;;;7.10;99.90;;;;;;4978821;28;20213;-57
2022/11/24 08:11:23;;;;;;;13.03;3.47;;;7.20;99.90;;;;;;5011671;28;20206;-56
2022/11/24 08:13:52;;;;;;;13.93;3.10;;;7.20;99.90;;;;;;4983021;28;20209;-57
2022/11/24 08:16:20;;;;;;;13.33;3.07;;;7.30;99.90;;;;;;4983516;28;20211;-57
2022/11/24 08:18:50;;;;;;;14.10;3.00;;;7.20;99.90;;;;;;4987080;28;20214;-54
2022/11/24 08:21:21;;;;;;;11.73;3.30;;;7.20;99.90;;;;;;4991482;28;20263;-55
2022/11/24 08:23:54;;;;;;;7.57;2.90;;;7.30;99.90;;;;;;4993036;28;20277;-58
2022/11/24 08:26:25;;;;;;;9.50;3.20;;;7.40;99.90;;;;;;4986402;28;20205;-57
2022/11/24 08:28:56;;;;;;;10.00;3.00;;;7.40;99.90;;;;;;4983615;28;20214;-55
2022/11/24 08:31:31;;;;;;;13.13;2.60;;;7.50;99.90;;;;;;4984142;28;20605;-56
2022/11/24 08:34:00;;;;;;;13.53;3.50;;;7.60;99.90;;;;;;4980625;28;20194;-56
2022/11/24 08:36:30;;;;;;;11.30;3.47;;;7.70;99.90;;;;;;4983134;28;20278;-57
2022/11/24 08:39:00;;;;;;;13.87;2.67;;;7.80;99.90;;;;;;5009506;28;20202;-57
2022/11/24 08:41:29;;;;;;;6.57;2.40;;;7.80;99.90;;;;;;5019951;28;20198;-57
2022/11/24 08:43:58;;;;;;;11.77;3.20;;;7.90;99.90;;;;;;5023973;28;20672;-57
2022/11/24 08:46:26;;;;;;;13.63;3.10;;;7.90;99.90;;;;;;4982505;28;20684;-57
2022/11/24 08:48:55;;;;;;;14.83;2.80;;;8.00;99.90;;;;;;4982365;28;20601;-57
2022/11/24 08:51:25;;;;;;;11.00;2.60;;;8.10;99.90;;;;;;4984984;28;20191;-57
2022/11/24 08:53:57;;;;;;;9.50;3.07;;;8.10;99.90;;;;;;4981736;28;20958;-57
2022/11/24 08:56:26;;;;;;;12.63;3.17;;;8.20;99.90;;;;;;4979550;28;20215;-56
2022/11/24 08:58:55;;;;;;;14.93;3.10;;;8.20;99.90;;;;;;4980299;28;20206;-56
2022/11/24 09:01:24;;;;;;;11.43;3.70;;;8.20;99.90;;;;;;4977948;28;20650;-56
2022/11/24 09:03:53;;;;;;;13.20;3.23;;;8.30;99.90;;;;;;4975248;28;20235;-56
2022/11/24 09:06:23;;;;;;;16.17;3.07;;;8.40;99.90;;;;;;5008201;28;21404;-55
2022/11/24 09:08:53;;;;;;;11.73;3.47;;;8.40;99.90;;;;;;4986595;28;20215;-56
2022/11/24 09:11:23;;;;;;;12.63;3.00;;;8.50;99.90;;;;;;4982708;28;20199;-55
2022/11/24 09:13:52;;;;;;;10.33;3.00;;;8.60;99.90;;;;;;4981566;28;20203;-56
2022/11/24 09:16:22;;;;;;;10.87;3.13;;;8.60;99.90;;;;;;4975157;28;20222;-56
2022/11/24 09:18:55;;;;;;;6.63;2.70;;;8.80;99.90;;;;;;4981890;28;20545;-56
2022/11/24 09:21:24;;;;;;;12.17;2.80;;;8.90;99.90;;;;;;5007460;28;20201;-57
2022/11/24 09:23:54;;;;;;;9.70;2.60;;;9.00;99.90;;;;;;4980167;28;20207;-57
2022/11/24 09:26:26;;;;;;;7.63;2.57;;;9.10;99.90;;;;;;5011956;27;20217;-57
2022/11/24 09:28:55;;;;;;;12.17;3.00;;;9.20;99.90;;;;;;4986055;28;20214;-54
2022/11/24 09:31:25;;;;;;;20.33;3.40;;;9.30;99.90;;;;;;5001253;28;20199;-55
2022/11/24 09:33:55;;;;;;;15.53;3.10;;;9.40;99.90;;;;;;4977383;28;20213;-57
2022/11/24 09:36:24;;;;;;;16.87;3.43;;;9.60;99.90;;;;;;5015873;28;20213;-56
2022/11/24 09:38:52;;;;;;;11.53;2.67;;;9.70;99.90;;;;;;5001671;28;20302;-56
2022/11/24 09:41:44;;;;;;;13.87;3.00;;;9.90;99.90;;;;;;4988398;28;20706;-56
2022/11/24 09:44:35;;;;;;;16.63;2.63;;;10.10;99.90;;;;;;4991410;28;20210;-56
2022/11/24 09:47:13;;;;;;;11.90;2.60;;;10.40;99.90;;;;;;4987645;28;20218;-58
2022/11/24 09:49:49;;;;;;;9.80;3.00;;;10.60;99.90;;;;;;4978723;28;20202;-57
2022/11/24 09:52:38;;;;;;;10.27;3.20;;;10.60;99.90;;;;;;4984463;28;20199;-57
2022/11/24 09:55:23;;;;;;;13.90;2.87;;;10.80;99.90;;;;;;4987861;28;20638;-57
2022/11/24 09:58:00;;;;;;;9.43;2.60;;;10.90;99.90;;;;;;4981277;28;20237;-56
2022/11/24 10:00:29;;;;;;;12.03;3.40;;;11.10;99.90;;;;;;4981173;28;20191;-57
2022/11/24 10:02:58;;;;;;;6.93;2.57;;;11.00;99.90;;;;;;4981603;28;20195;-58
2022/11/24 10:05:27;;;;;;;17.20;3.63;;;11.10;99.90;;;;;;4982115;28;20200;-57
2022/11/24 10:08:06;;;;;;;9.63;2.80;;;11.20;99.90;;;;;;4992880;28;20223;-57
2022/11/24 10:10:43;;;;;;;13.37;3.43;;;11.30;99.90;;;;;;4982542;28;20197;-58
2022/11/24 10:13:25;;;;;;;11.27;2.93;;;11.30;99.90;;;;;;4979811;28;20206;-57
2022/11/24 10:16:01;;;;;;;8.67;2.73;;;11.20;99.90;;;;;;4982034;28;20226;-57
2022/11/24 10:18:55;;;;;;;11.27;3.00;;;11.20;99.90;;;;;;4982757;28;20280;-57
2022/11/24 10:21:54;;;;;;;14.50;3.33;;;11.20;99.90;;;;;;5006705;28;20195;-57
2022/11/24 10:24:36;;;;;;;18.43;3.47;;;11.20;99.90;;;;;;4977583;28;20665;-58
2022/11/24 10:27:17;;;;;;;8.73;3.40;;;11.20;99.90;;;;;;4982835;28;20211;-57
2022/11/24 10:29:51;;;;;;;11.83;2.90;;;11.40;99.90;;;;;;4984092;28;20206;-58
2022/11/24 10:32:24;;;;;;;6.70;2.43;;;11.40;99.90;;;;;;4977922;28;20195;-57
2022/11/24 10:34:54;;;;;;;20.80;3.97;;;11.50;99.90;;;;;;4986238;28;20978;-57
2022/11/24 10:37:28;;;;;;;13.20;2.70;;;11.40;99.90;;;;;;4984808;28;20206;-57
2022/11/24 10:40:03;;;;;;;9.97;2.70;;;11.30;99.90;;;;;;5009096;28;20225;-57
2022/11/24 10:42:35;;;;;;;11.27;2.87;;;11.40;99.90;;;;;;4992799;28;20214;-58
2022/11/24 10:45:11;;;;;;;14.17;3.57;;;11.30;99.90;;;;;;4982555;28;20191;-57
2022/11/24 10:47:41;;;;;;;11.03;2.60;;;11.40;99.90;;;;;;4977203;28;20297;-57
2022/11/24 10:50:18;;;;;;;17.60;2.93;;;11.40;99.90;;;;;;4992307;28;20249;-57
2022/11/24 10:52:51;;;;;;;9.00;3.03;;;11.50;99.90;;;;;;4986772;28;20652;-58
2022/11/24 10:55:21;;;;;;;8.40;2.60;;;11.60;99.90;;;;;;4975138;28;20688;-57
2022/11/24 10:57:50;;;;;;;10.13;2.70;;;11.70;99.90;;;;;;4981188;28;20196;-57
2022/11/24 11:00:34;;;;;;;10.67;3.17;;;11.70;99.90;;;;;;4985379;28;20577;-57
2022/11/24 11:03:19;;;;;;;13.50;3.13;;;11.80;99.90;;;;;;4984067;28;20696;-58
2022/11/24 11:05:52;;;;;;;10.13;3.00;;;11.70;99.90;;;;;;4993023;28;20697;-57
2022/11/24 11:08:24;;;;;;;8.83;2.87;;;11.70;99.90;;;;;;4981226;28;20700;-58
2022/11/24 11:11:18;;;;;;;15.17;2.87;;;11.80;99.90;;;;;;4980394;28;20194;-58
2022/11/24 11:13:55;;;;;;;9.67;2.40;;;11.90;99.90;;;;;;4992936;28;20198;-57
2022/11/24 11:16:37;;;;;;;10.40;2.60;;;11.90;99.90;;;;;;4976100;28;20219;-58
2022/11/24 11:19:25;;;;;;;9.17;3.00;;;12.10;99.90;;;;;;4995249;28;20581;-57
2022/11/24 11:22:19;;;;;;;11.03;2.90;;;12.10;99.90;;;;;;4983915;28;20244;-57
2022/11/24 11:25:02;;;;;;;10.17;2.77;;;12.20;99.90;;;;;;4976511;28;20679;-57
2022/11/24 11:27:30;;;;;;;12.90;2.87;;;12.30;99.90;;;;;;4978898;28;20206;-57
2022/11/24 11:30:17;;;;;;;13.60;2.40;;;12.20;99.90;;;;;;4987222;28;20196;-58
2022/11/24 11:33:21;;;;;;;14.00;2.70;;;12.20;99.90;;;;;;4979242;28;20203;-58
2022/11/24 11:36:10;;;;;;;9.13;2.83;;;12.30;99.90;;;;;;4991429;28;20692;-58
2022/11/24 11:38:41;;;;;;;11.87;2.83;;;12.30;99.90;;;;;;4995563;28;20198;-58
2022/11/24 11:41:19;;;;;;;8.90;3.07;;;12.30;99.90;;;;;;4978032;28;20812;-58
2022/11/24 11:43:54;;;;;;;7.67;2.83;;;12.20;99.90;;;;;;5014044;28;20648;-57
2022/11/24 11:46:26;;;;;;;12.37;2.80;;;12.20;99.90;;;;;;4975299;28;20194;-58
2022/11/24 11:48:55;;;;;;;10.70;2.87;;;12.20;99.90;;;;;;4978926;28;20215;-57
2022/11/24 11:51:36;;;;;;;11.27;2.87;;;12.20;99.90;;;;;;4977688;28;20195;-58
2022/11/24 11:54:13;;;;;;;15.80;3.23;;;12.10;99.90;;;;;;4980143;28;20207;-58
2022/11/24 11:56:44;;;;;;;9.43;2.53;;;12.00;99.90;;;;;;4984791;28;20190;-57
2022/11/24 11:59:57;;;;;;;17.20;3.73;;;12.00;99.90;;;;;;4986656;28;20209;-58
2022/11/24 12:03:00;;;;;;;13.50;3.43;;;12.00;99.90;;;;;;4973084;28;21008;-57
2022/11/24 12:05:43;;;;;;;8.87;2.50;;;12.00;99.90;;;;;;4973158;28;20232;-58
2022/11/24 12:08:24;;;;;;;12.63;3.10;;;11.90;99.90;;;;;;4980301;28;20226;-57
2022/11/24 12:11:02;;;;;;;10.57;2.77;;;11.90;99.90;;;;;;4973562;28;20199;-57
2022/11/24 12:13:52;;;;;;;7.40;3.13;;;11.90;99.90;;;;;;4979513;28;20198;-58
2022/11/24 12:16:30;;;;;;;15.77;3.23;;;12.00;99.90;;;;;;4978728;28;20318;-58
2022/11/24 12:19:15;;;;;;;18.37;4.10;;;12.20;99.90;;;;;;4980810;28;20188;-58
2022/11/24 12:21:55;;;;;;;13.10;3.00;;;12.40;99.90;;;;;;4987809;28;20195;-57
2022/11/24 12:24:32;;;;;;;12.47;5.97;;;12.60;99.90;;;;;;4981446;28;20210;-58
2022/11/24 12:27:05;;;;;;;22.97;8.37;;;12.60;99.90;;;;;;4970999;28;20210;-57
2022/11/24 12:29:57;;;;;;;26.33;9.97;;;12.50;99.90;;;;;;4986205;28;20215;-58
2022/11/24 12:32:43;;;;;;;19.33;6.00;;;12.40;99.90;;;;;;4982305;28;20195;-57
2022/11/24 12:35:21;;;;;;;47.73;23.40;;;12.40;99.90;;;;;;4979257;28;20183;-58
2022/11/24 12:38:02;;;;;;;25.43;8.43;;;12.50;99.90;;;;;;4979204;28;20605;-57
2022/11/24 12:40:41;;;;;;;22.27;8.17;;;12.50;99.90;;;;;;4977928;28;20569;-57
2022/11/24 12:43:20;;;;;;;15.53;4.20;;;12.50;99.90;;;;;;5012586;28;20369;-58
2022/11/24 12:45:59;;;;;;;36.73;21.80;;;12.40;99.90;;;;;;4984653;28;20268;-58
2022/11/24 12:48:45;;;;;;;21.10;5.90;;;12.40;99.90;;;;;;4993898;28;20225;-58
2022/11/24 12:51:17;;;;;;;14.63;6.80;;;12.50;99.90;;;;;;4977721;28;20561;-58
2022/11/24 12:53:49;;;;;;;14.93;3.67;;;12.40;99.90;;;;;;4967061;28;20202;-58
2022/11/24 12:56:25;;;;;;;12.23;3.47;;;12.40;99.90;;;;;;4987684;28;20279;-58
2022/11/24 12:59:03;;;;;;;12.50;3.57;;;12.40;99.90;;;;;;4986017;28;20194;-58
2022/11/24 13:01:36;;;;;;;26.17;7.40;;;12.40;99.90;;;;;;4978345;28;20198;-58
2022/11/24 13:04:14;;;;;;;18.30;5.03;;;12.50;99.90;;;;;;4990235;28;21004;-58
2022/11/24 13:06:50;;;;;;;13.13;3.60;;;12.50;99.90;;;;;;4989526;28;20195;-58
2022/11/24 13:09:20;;;;;;;15.00;4.10;;;12.60;99.90;;;;;;4983561;28;20215;-58
2022/11/24 13:11:50;;;;;;;14.30;3.03;;;12.60;99.90;;;;;;4985472;28;20537;-58
2022/11/24 13:14:21;;;;;;;14.73;3.33;;;12.50;99.90;;;;;;4982958;28;20218;-57
2022/11/24 13:16:53;;;;;;;10.90;3.43;;;12.50;99.90;;;;;;4985760;28;20191;-57
2022/11/24 13:19:42;;;;;;;23.70;3.50;;;12.30;99.90;;;;;;5008305;28;20231;-57